sensor_id;sensor_type;location;lat;lon;timestamp;P1;durP1;ratioP1;P2;durP2;ratioP2
22543;SDS011;11438;52.044;8.716;2022-08-11T00:01:48;2.00;;;1.30;;
22543;SDS011;11438;52.044;8.716;2022-08-11T00:04:20;2.67;;;1.30;;
22543;SDS011;11438;52.044;8.716;2022-08-11T00:06:48;2.00;;;1.27;;
22543;SDS011;11438;52.044;8.716;2022-08-11T00:09:15;4.53;;;1.48;;
22543;SDS011;11438;52.044;8.716;2022-08-11T00:11:53;1.85;;;1.30;;
22543;SDS011;11438;52.044;8.716;2022-08-11T00:14:21;1.85;;;1.27;;
22543;SDS011;11438;52.044;8.716;2022-08-11T00:16:53;2.17;;;1.27;;
22543;SDS011;11438;52.044;8.716;2022-08-11T00:19:21;2.97;;;1.10;;
22543;SDS011;11438;52.044;8.716;2022-08-11T00:21:48;4.22;;;1.20;;
22543;SDS011;11438;52.044;8.716;2022-08-11T00:24:15;1.98;;;1.20;;
22543;SDS011;11438;52.044;8.716;2022-08-11T00:26:46;1.60;;;1.10;;
22543;SDS011;11438;52.044;8.716;2022-08-11T00:29:15;2.28;;;1.40;;
22543;SDS011;11438;52.044;8.716;2022-08-11T00:31:46;1.38;;;1.08;;
22543;SDS011;11438;52.044;8.716;2022-08-11T00:34:14;2.95;;;1.10;;
22543;SDS011;11438;52.044;8.716;2022-08-11T00:36:51;1.98;;;1.10;;
22543;SDS011;11438;52.044;8.716;2022-08-11T00:39:22;2.45;;;1.10;;
22543;SDS011;11438;52.044;8.716;2022-08-11T00:41:59;2.50;;;1.33;;
22543;SDS011;11438;52.044;8.716;2022-08-11T00:44:41;1.25;;;1.00;;
22543;SDS011;11438;52.044;8.716;2022-08-11T00:55:30;2.55;;;1.30;;
22543;SDS011;11438;52.044;8.716;2022-08-11T01:00:57;2.55;;;1.27;;
22543;SDS011;11438;52.044;8.716;2022-08-11T01:09:30;3.08;;;1.20;;
22543;SDS011;11438;52.044;8.716;2022-08-11T01:12:23;2.20;;;1.17;;
22543;SDS011;11438;52.044;8.716;2022-08-11T01:18:25;3.03;;;1.30;;
22543;SDS011;11438;52.044;8.716;2022-08-11T01:43:09;1.58;;;1.20;;
22543;SDS011;11438;52.044;8.716;2022-08-11T01:46:32;2.47;;;1.25;;
22543;SDS011;11438;52.044;8.716;2022-08-11T01:49:23;1.77;;;1.10;;
22543;SDS011;11438;52.044;8.716;2022-08-11T01:52:16;2.55;;;1.40;;
22543;SDS011;11438;52.044;8.716;2022-08-11T01:54:52;1.80;;;1.30;;
22543;SDS011;11438;52.044;8.716;2022-08-11T02:00:19;1.33;;;1.13;;
22543;SDS011;11438;52.044;8.716;2022-08-11T02:02:57;1.63;;;1.40;;
22543;SDS011;11438;52.044;8.716;2022-08-11T02:09:06;2.28;;;1.45;;
22543;SDS011;11438;52.044;8.716;2022-08-11T02:11:36;1.92;;;1.27;;
22543;SDS011;11438;52.044;8.716;2022-08-11T02:14:18;2.42;;;1.20;;
22543;SDS011;11438;52.044;8.716;2022-08-11T02:19:48;4.88;;;2.20;;
22543;SDS011;11438;52.044;8.716;2022-08-11T02:31:10;1.65;;;1.40;;
22543;SDS011;11438;52.044;8.716;2022-08-11T02:34:15;4.10;;;1.50;;
22543;SDS011;11438;52.044;8.716;2022-08-11T02:37:02;2.17;;;1.50;;
22543;SDS011;11438;52.044;8.716;2022-08-11T02:45:32;3.78;;;1.63;;
22543;SDS011;11438;52.044;8.716;2022-08-11T02:48:26;1.80;;;1.30;;
22543;SDS011;11438;52.044;8.716;2022-08-11T02:51:53;2.88;;;1.48;;
22543;SDS011;11438;52.044;8.716;2022-08-11T02:54:32;3.05;;;1.33;;
22543;SDS011;11438;52.044;8.716;2022-08-11T02:57:24;3.00;;;1.30;;
22543;SDS011;11438;52.044;8.716;2022-08-11T02:59:56;2.58;;;1.20;;
22543;SDS011;11438;52.044;8.716;2022-08-11T03:05:23;3.38;;;1.42;;
22543;SDS011;11438;52.044;8.716;2022-08-11T03:14:06;4.15;;;1.45;;
22543;SDS011;11438;52.044;8.716;2022-08-11T03:25:15;3.10;;;1.35;;
22543;SDS011;11438;52.044;8.716;2022-08-11T03:28:01;2.33;;;1.40;;
22543;SDS011;11438;52.044;8.716;2022-08-11T03:30:47;2.92;;;1.50;;
22543;SDS011;11438;52.044;8.716;2022-08-11T03:33:31;2.80;;;1.55;;
22543;SDS011;11438;52.044;8.716;2022-08-11T03:42:05;3.10;;;1.70;;
22543;SDS011;11438;52.044;8.716;2022-08-11T03:44:58;2.95;;;1.50;;
22543;SDS011;11438;52.044;8.716;2022-08-11T03:47:59;1.58;;;1.40;;
22543;SDS011;11438;52.044;8.716;2022-08-11T03:56:28;2.38;;;1.60;;
22543;SDS011;11438;52.044;8.716;2022-08-11T04:00:04;1.42;;;1.33;;
22543;SDS011;11438;52.044;8.716;2022-08-11T04:05:22;1.77;;;1.38;;
22543;SDS011;11438;52.044;8.716;2022-08-11T04:08:03;2.83;;;1.70;;
22543;SDS011;11438;52.044;8.716;2022-08-11T04:14:03;5.40;;;1.52;;
22543;SDS011;11438;52.044;8.716;2022-08-11T04:35:31;2.00;;;1.60;;
22543;SDS011;11438;52.044;8.716;2022-08-11T04:38:13;2.45;;;1.60;;
22543;SDS011;11438;52.044;8.716;2022-08-11T04:56:06;3.72;;;1.75;;
22543;SDS011;11438;52.044;8.716;2022-08-11T04:59:07;3.00;;;1.45;;
22543;SDS011;11438;52.044;8.716;2022-08-11T05:02:49;2.83;;;1.55;;
22543;SDS011;11438;52.044;8.716;2022-08-11T05:05:25;2.28;;;1.58;;
22543;SDS011;11438;52.044;8.716;2022-08-11T05:16:55;4.05;;;1.85;;
22543;SDS011;11438;52.044;8.716;2022-08-11T05:19:46;2.65;;;1.45;;
22543;SDS011;11438;52.044;8.716;2022-08-11T05:22:30;2.80;;;1.75;;
22543;SDS011;11438;52.044;8.716;2022-08-11T05:25:18;4.28;;;1.85;;
22543;SDS011;11438;52.044;8.716;2022-08-11T05:28:11;3.03;;;1.80;;
22543;SDS011;11438;52.044;8.716;2022-08-11T05:30:59;2.13;;;1.60;;
22543;SDS011;11438;52.044;8.716;2022-08-11T05:33:49;1.50;;;1.38;;
22543;SDS011;11438;52.044;8.716;2022-08-11T05:36:42;4.30;;;1.65;;
22543;SDS011;11438;52.044;8.716;2022-08-11T05:39:14;4.18;;;1.60;;
22543;SDS011;11438;52.044;8.716;2022-08-11T05:42:01;1.63;;;1.48;;
22543;SDS011;11438;52.044;8.716;2022-08-11T05:44:49;3.08;;;1.75;;
22543;SDS011;11438;52.044;8.716;2022-08-11T05:47:35;3.67;;;2.08;;
22543;SDS011;11438;52.044;8.716;2022-08-11T05:50:20;3.65;;;2.40;;
22543;SDS011;11438;52.044;8.716;2022-08-11T05:53:07;2.47;;;2.13;;
22543;SDS011;11438;52.044;8.716;2022-08-11T05:55:54;2.95;;;2.22;;
22543;SDS011;11438;52.044;8.716;2022-08-11T05:58:41;4.07;;;2.25;;
22543;SDS011;11438;52.044;8.716;2022-08-11T06:01:13;3.28;;;2.33;;
22543;SDS011;11438;52.044;8.716;2022-08-11T06:03:51;3.97;;;2.42;;
22543;SDS011;11438;52.044;8.716;2022-08-11T06:06:37;4.30;;;2.08;;
22543;SDS011;11438;52.044;8.716;2022-08-11T06:09:34;3.33;;;2.15;;
22543;SDS011;11438;52.044;8.716;2022-08-11T06:12:30;5.50;;;2.10;;
22543;SDS011;11438;52.044;8.716;2022-08-11T06:15:00;3.00;;;2.05;;
22543;SDS011;11438;52.044;8.716;2022-08-11T06:17:30;4.47;;;2.60;;
22543;SDS011;11438;52.044;8.716;2022-08-11T06:19:58;3.47;;;2.50;;
22543;SDS011;11438;52.044;8.716;2022-08-11T06:22:26;3.10;;;2.60;;
22543;SDS011;11438;52.044;8.716;2022-08-11T06:24:59;4.03;;;2.50;;
22543;SDS011;11438;52.044;8.716;2022-08-11T06:27:26;4.03;;;2.33;;
22543;SDS011;11438;52.044;8.716;2022-08-11T06:29:55;3.55;;;2.33;;
22543;SDS011;11438;52.044;8.716;2022-08-11T06:32:26;10.88;;;2.63;;
22543;SDS011;11438;52.044;8.716;2022-08-11T06:37:57;4.60;;;2.75;;
22543;SDS011;11438;52.044;8.716;2022-08-11T06:40:56;2.78;;;2.22;;
22543;SDS011;11438;52.044;8.716;2022-08-11T06:43:53;4.35;;;2.20;;
22543;SDS011;11438;52.044;8.716;2022-08-11T06:46:25;5.55;;;2.50;;
22543;SDS011;11438;52.044;8.716;2022-08-11T06:48:55;3.80;;;2.38;;
22543;SDS011;11438;52.044;8.716;2022-08-11T06:51:21;5.03;;;2.55;;
22543;SDS011;11438;52.044;8.716;2022-08-11T06:53:49;3.42;;;2.35;;
22543;SDS011;11438;52.044;8.716;2022-08-11T06:56:24;3.88;;;2.30;;
22543;SDS011;11438;52.044;8.716;2022-08-11T06:59:11;2.40;;;2.00;;
22543;SDS011;11438;52.044;8.716;2022-08-11T07:04:43;3.33;;;1.75;;
22543;SDS011;11438;52.044;8.716;2022-08-11T07:07:35;3.03;;;2.00;;
22543;SDS011;11438;52.044;8.716;2022-08-11T07:13:06;3.90;;;2.20;;
22543;SDS011;11438;52.044;8.716;2022-08-11T07:15:51;5.32;;;2.10;;
22543;SDS011;11438;52.044;8.716;2022-08-11T07:18:21;5.13;;;2.13;;
22543;SDS011;11438;52.044;8.716;2022-08-11T07:21:10;3.20;;;2.25;;
22543;SDS011;11438;52.044;8.716;2022-08-11T07:24:12;4.25;;;2.22;;
22543;SDS011;11438;52.044;8.716;2022-08-11T07:26:59;3.95;;;2.38;;
22543;SDS011;11438;52.044;8.716;2022-08-11T07:29:46;5.85;;;2.30;;
22543;SDS011;11438;52.044;8.716;2022-08-11T07:32:16;5.53;;;2.50;;
22543;SDS011;11438;52.044;8.716;2022-08-11T07:34:49;7.60;;;2.70;;
22543;SDS011;11438;52.044;8.716;2022-08-11T07:37:19;4.95;;;2.30;;
22543;SDS011;11438;52.044;8.716;2022-08-11T07:39:48;5.07;;;2.70;;
22543;SDS011;11438;52.044;8.716;2022-08-11T07:42:17;6.90;;;2.45;;
22543;SDS011;11438;52.044;8.716;2022-08-11T07:44:46;3.72;;;2.15;;
22543;SDS011;11438;52.044;8.716;2022-08-11T07:47:31;4.85;;;1.83;;
22543;SDS011;11438;52.044;8.716;2022-08-11T07:50:18;7.95;;;2.25;;
22543;SDS011;11438;52.044;8.716;2022-08-11T07:53:03;6.57;;;1.98;;
22543;SDS011;11438;52.044;8.716;2022-08-11T07:55:29;3.40;;;1.75;;
22543;SDS011;11438;52.044;8.716;2022-08-11T07:57:59;11.77;;;1.95;;
22543;SDS011;11438;52.044;8.716;2022-08-11T08:00:46;4.50;;;2.05;;
22543;SDS011;11438;52.044;8.716;2022-08-11T08:03:34;4.72;;;1.95;;
22543;SDS011;11438;52.044;8.716;2022-08-11T08:06:20;3.65;;;1.60;;
22543;SDS011;11438;52.044;8.716;2022-08-11T08:09:06;5.22;;;1.80;;
22543;SDS011;11438;52.044;8.716;2022-08-11T08:11:51;4.38;;;1.73;;
22543;SDS011;11438;52.044;8.716;2022-08-11T08:14:35;3.45;;;1.75;;
22543;SDS011;11438;52.044;8.716;2022-08-11T08:17:21;2.20;;;1.40;;
22543;SDS011;11438;52.044;8.716;2022-08-11T08:20:07;2.67;;;1.50;;
22543;SDS011;11438;52.044;8.716;2022-08-11T08:22:36;3.20;;;1.48;;
22543;SDS011;11438;52.044;8.716;2022-08-11T08:25:04;1.77;;;1.20;;
22543;SDS011;11438;52.044;8.716;2022-08-11T08:27:31;2.60;;;1.35;;
22543;SDS011;11438;52.044;8.716;2022-08-11T08:29:58;5.50;;;1.60;;
22543;SDS011;11438;52.044;8.716;2022-08-11T08:32:43;2.90;;;1.40;;
22543;SDS011;11438;52.044;8.716;2022-08-11T08:35:09;2.70;;;1.05;;
22543;SDS011;11438;52.044;8.716;2022-08-11T08:37:35;3.90;;;1.20;;
22543;SDS011;11438;52.044;8.716;2022-08-11T08:40:02;3.63;;;1.40;;
22543;SDS011;11438;52.044;8.716;2022-08-11T08:42:30;2.72;;;1.25;;
22543;SDS011;11438;52.044;8.716;2022-08-11T08:45:03;2.72;;;1.45;;
22543;SDS011;11438;52.044;8.716;2022-08-11T08:47:30;6.72;;;1.38;;
22543;SDS011;11438;52.044;8.716;2022-08-11T08:50:04;1.85;;;1.10;;
22543;SDS011;11438;52.044;8.716;2022-08-11T08:52:34;1.52;;;1.08;;
22543;SDS011;11438;52.044;8.716;2022-08-11T08:55:04;7.43;;;1.20;;
22543;SDS011;11438;52.044;8.716;2022-08-11T08:57:32;4.00;;;1.38;;
22543;SDS011;11438;52.044;8.716;2022-08-11T08:59:59;2.03;;;0.90;;
22543;SDS011;11438;52.044;8.716;2022-08-11T09:02:27;3.17;;;0.90;;
22543;SDS011;11438;52.044;8.716;2022-08-11T09:04:54;1.90;;;1.50;;
22543;SDS011;11438;52.044;8.716;2022-08-11T09:07:21;3.03;;;1.17;;
22543;SDS011;11438;52.044;8.716;2022-08-11T09:09:51;3.33;;;1.13;;
22543;SDS011;11438;52.044;8.716;2022-08-11T09:12:19;1.65;;;1.25;;
22543;SDS011;11438;52.044;8.716;2022-08-11T09:14:46;4.90;;;1.55;;
22543;SDS011;11438;52.044;8.716;2022-08-11T09:20:12;3.38;;;1.42;;
22543;SDS011;11438;52.044;8.716;2022-08-11T09:22:39;3.63;;;1.70;;
22543;SDS011;11438;52.044;8.716;2022-08-11T09:25:26;1.90;;;1.35;;
22543;SDS011;11438;52.044;8.716;2022-08-11T09:28:12;5.10;;;1.33;;
22543;SDS011;11438;52.044;8.716;2022-08-11T09:30:40;3.40;;;1.52;;
22543;SDS011;11438;52.044;8.716;2022-08-11T09:33:07;3.55;;;1.40;;
22543;SDS011;11438;52.044;8.716;2022-08-11T09:35:36;3.67;;;1.60;;
22543;SDS011;11438;52.044;8.716;2022-08-11T09:38:04;4.55;;;1.73;;
22543;SDS011;11438;52.044;8.716;2022-08-11T09:40:50;3.28;;;1.50;;
22543;SDS011;11438;52.044;8.716;2022-08-11T09:43:17;2.20;;;1.40;;
22543;SDS011;11438;52.044;8.716;2022-08-11T09:46:03;3.80;;;1.42;;
22543;SDS011;11438;52.044;8.716;2022-08-11T09:48:30;4.35;;;1.60;;
22543;SDS011;11438;52.044;8.716;2022-08-11T09:51:01;6.53;;;1.58;;
22543;SDS011;11438;52.044;8.716;2022-08-11T09:53:31;1.50;;;1.35;;
22543;SDS011;11438;52.044;8.716;2022-08-11T09:55:59;3.50;;;1.88;;
22543;SDS011;11438;52.044;8.716;2022-08-11T09:58:46;2.83;;;1.80;;
22543;SDS011;11438;52.044;8.716;2022-08-11T10:01:12;1.60;;;1.27;;
22543;SDS011;11438;52.044;8.716;2022-08-11T10:03:52;2.97;;;1.50;;
22543;SDS011;11438;52.044;8.716;2022-08-11T10:06:27;2.50;;;1.60;;
22543;SDS011;11438;52.044;8.716;2022-08-11T10:09:16;5.30;;;1.75;;
22543;SDS011;11438;52.044;8.716;2022-08-11T10:11:45;3.30;;;2.03;;
22543;SDS011;11438;52.044;8.716;2022-08-11T10:14:11;3.67;;;1.50;;
22543;SDS011;11438;52.044;8.716;2022-08-11T10:16:58;4.18;;;1.70;;
22543;SDS011;11438;52.044;8.716;2022-08-11T10:19:28;1.75;;;1.50;;
22543;SDS011;11438;52.044;8.716;2022-08-11T10:21:56;3.67;;;1.67;;
22543;SDS011;11438;52.044;8.716;2022-08-11T10:24:41;1.50;;;1.40;;
22543;SDS011;11438;52.044;8.716;2022-08-11T10:27:27;2.30;;;1.42;;
22543;SDS011;11438;52.044;8.716;2022-08-11T10:29:52;1.70;;;1.60;;
22543;SDS011;11438;52.044;8.716;2022-08-11T10:32:37;1.65;;;1.40;;
22543;SDS011;11438;52.044;8.716;2022-08-11T10:35:22;2.22;;;1.40;;
22543;SDS011;11438;52.044;8.716;2022-08-11T10:37:50;1.92;;;1.50;;
22543;SDS011;11438;52.044;8.716;2022-08-11T10:40:17;2.65;;;1.63;;
22543;SDS011;11438;52.044;8.716;2022-08-11T10:42:46;1.98;;;1.45;;
22543;SDS011;11438;52.044;8.716;2022-08-11T10:45:28;3.00;;;1.50;;
22543;SDS011;11438;52.044;8.716;2022-08-11T10:48:13;2.40;;;1.38;;
22543;SDS011;11438;52.044;8.716;2022-08-11T10:50:44;3.05;;;1.65;;
22543;SDS011;11438;52.044;8.716;2022-08-11T10:53:29;2.95;;;1.45;;
22543;SDS011;11438;52.044;8.716;2022-08-11T10:56:13;1.80;;;1.40;;
22543;SDS011;11438;52.044;8.716;2022-08-11T10:58:59;1.75;;;1.27;;
22543;SDS011;11438;52.044;8.716;2022-08-11T11:01:26;1.30;;;1.20;;
22543;SDS011;11438;52.044;8.716;2022-08-11T11:04:07;3.35;;;1.40;;
22543;SDS011;11438;52.044;8.716;2022-08-11T11:06:56;2.25;;;1.45;;
22543;SDS011;11438;52.044;8.716;2022-08-11T11:09:43;2.65;;;1.45;;
22543;SDS011;11438;52.044;8.716;2022-08-11T11:12:19;2.53;;;1.40;;
22543;SDS011;11438;52.044;8.716;2022-08-11T11:15:07;4.50;;;1.33;;
22543;SDS011;11438;52.044;8.716;2022-08-11T11:17:55;3.42;;;1.30;;
22543;SDS011;11438;52.044;8.716;2022-08-11T11:20:31;2.28;;;1.48;;
22543;SDS011;11438;52.044;8.716;2022-08-11T11:23:00;1.63;;;1.30;;
22543;SDS011;11438;52.044;8.716;2022-08-11T11:25:35;2.65;;;1.40;;
22543;SDS011;11438;52.044;8.716;2022-08-11T11:36:59;2.03;;;1.23;;
22543;SDS011;11438;52.044;8.716;2022-08-11T11:39:26;2.03;;;1.27;;
22543;SDS011;11438;52.044;8.716;2022-08-11T11:41:56;1.27;;;1.17;;
22543;SDS011;11438;52.044;8.716;2022-08-11T11:44:25;4.05;;;1.95;;
22543;SDS011;11438;52.044;8.716;2022-08-11T11:46:52;1.80;;;1.30;;
22543;SDS011;11438;52.044;8.716;2022-08-11T11:49:19;3.10;;;1.55;;
22543;SDS011;11438;52.044;8.716;2022-08-11T11:51:48;2.17;;;1.48;;
22543;SDS011;11438;52.044;8.716;2022-08-11T11:54:17;3.65;;;1.38;;
22543;SDS011;11438;52.044;8.716;2022-08-11T11:56:55;2.78;;;1.45;;
22543;SDS011;11438;52.044;8.716;2022-08-11T11:59:23;1.98;;;1.30;;
22543;SDS011;11438;52.044;8.716;2022-08-11T12:02:10;3.55;;;1.58;;
22543;SDS011;11438;52.044;8.716;2022-08-11T12:04:41;1.80;;;1.20;;
22543;SDS011;11438;52.044;8.716;2022-08-11T12:07:09;1.95;;;1.15;;
22543;SDS011;11438;52.044;8.716;2022-08-11T12:09:54;2.40;;;1.27;;
22543;SDS011;11438;52.044;8.716;2022-08-11T12:12:21;2.08;;;1.40;;
22543;SDS011;11438;52.044;8.716;2022-08-11T12:15:06;1.60;;;1.40;;
22543;SDS011;11438;52.044;8.716;2022-08-11T12:17:33;2.63;;;1.30;;
22543;SDS011;11438;52.044;8.716;2022-08-11T12:20:00;1.35;;;1.02;;
22543;SDS011;11438;52.044;8.716;2022-08-11T12:22:26;3.72;;;1.65;;
22543;SDS011;11438;52.044;8.716;2022-08-11T12:25:11;1.90;;;1.15;;
22543;SDS011;11438;52.044;8.716;2022-08-11T12:27:56;3.08;;;1.60;;
22543;SDS011;11438;52.044;8.716;2022-08-11T12:30:22;1.88;;;1.50;;
22543;SDS011;11438;52.044;8.716;2022-08-11T12:32:48;2.58;;;1.48;;
22543;SDS011;11438;52.044;8.716;2022-08-11T12:35:14;2.53;;;1.45;;
22543;SDS011;11438;52.044;8.716;2022-08-11T12:37:41;2.75;;;1.50;;
22543;SDS011;11438;52.044;8.716;2022-08-11T12:40:16;1.60;;;1.40;;
22543;SDS011;11438;52.044;8.716;2022-08-11T12:43:05;2.92;;;1.23;;
22543;SDS011;11438;52.044;8.716;2022-08-11T12:45:53;1.60;;;1.50;;
22543;SDS011;11438;52.044;8.716;2022-08-11T12:48:22;3.15;;;1.50;;
22543;SDS011;11438;52.044;8.716;2022-08-11T12:51:10;4.55;;;1.30;;
22543;SDS011;11438;52.044;8.716;2022-08-11T12:54:07;1.67;;;1.40;;
22543;SDS011;11438;52.044;8.716;2022-08-11T12:56:43;2.50;;;1.63;;
22543;SDS011;11438;52.044;8.716;2022-08-11T12:59:29;2.28;;;1.38;;
22543;SDS011;11438;52.044;8.716;2022-08-11T13:02:15;2.10;;;1.17;;
22543;SDS011;11438;52.044;8.716;2022-08-11T13:05:01;1.15;;;1.00;;
22543;SDS011;11438;52.044;8.716;2022-08-11T13:07:29;1.85;;;1.50;;
22543;SDS011;11438;52.044;8.716;2022-08-11T13:09:57;3.00;;;1.42;;
22543;SDS011;11438;52.044;8.716;2022-08-11T13:12:25;2.88;;;1.67;;
22543;SDS011;11438;52.044;8.716;2022-08-11T13:15:10;2.28;;;1.52;;
22543;SDS011;11438;52.044;8.716;2022-08-11T13:17:49;1.42;;;1.05;;
22543;SDS011;11438;52.044;8.716;2022-08-11T13:20:20;1.65;;;1.27;;
22543;SDS011;11438;52.044;8.716;2022-08-11T13:22:47;2.03;;;1.30;;
22543;SDS011;11438;52.044;8.716;2022-08-11T13:25:16;1.42;;;1.25;;
22543;SDS011;11438;52.044;8.716;2022-08-11T13:27:45;2.42;;;1.40;;
22543;SDS011;11438;52.044;8.716;2022-08-11T13:30:12;3.15;;;1.40;;
22543;SDS011;11438;52.044;8.716;2022-08-11T13:32:57;2.15;;;1.60;;
22543;SDS011;11438;52.044;8.716;2022-08-11T13:35:24;1.75;;;1.10;;
22543;SDS011;11438;52.044;8.716;2022-08-11T13:37:51;1.73;;;1.30;;
22543;SDS011;11438;52.044;8.716;2022-08-11T13:40:19;1.85;;;1.35;;
22543;SDS011;11438;52.044;8.716;2022-08-11T13:42:45;2.50;;;1.20;;
22543;SDS011;11438;52.044;8.716;2022-08-11T13:45:13;1.80;;;1.20;;
22543;SDS011;11438;52.044;8.716;2022-08-11T13:47:39;2.10;;;1.13;;
22543;SDS011;11438;52.044;8.716;2022-08-11T13:50:06;1.52;;;1.17;;
22543;SDS011;11438;52.044;8.716;2022-08-11T13:52:33;2.70;;;1.48;;
22543;SDS011;11438;52.044;8.716;2022-08-11T13:55:03;1.27;;;1.10;;
22543;SDS011;11438;52.044;8.716;2022-08-11T13:57:34;3.03;;;1.30;;
22543;SDS011;11438;52.044;8.716;2022-08-11T14:00:03;1.83;;;1.20;;
22543;SDS011;11438;52.044;8.716;2022-08-11T14:02:40;3.80;;;1.38;;
22543;SDS011;11438;52.044;8.716;2022-08-11T14:05:09;1.13;;;1.00;;
22543;SDS011;11438;52.044;8.716;2022-08-11T14:07:41;3.08;;;1.35;;
22543;SDS011;11438;52.044;8.716;2022-08-11T14:10:13;1.67;;;1.25;;
22543;SDS011;11438;52.044;8.716;2022-08-11T14:12:42;4.13;;;1.17;;
22543;SDS011;11438;52.044;8.716;2022-08-11T14:15:33;1.92;;;1.20;;
22543;SDS011;11438;52.044;8.716;2022-08-11T14:18:01;2.05;;;1.25;;
22543;SDS011;11438;52.044;8.716;2022-08-11T14:20:33;1.30;;;1.20;;
22543;SDS011;11438;52.044;8.716;2022-08-11T14:23:22;2.08;;;1.30;;
22543;SDS011;11438;52.044;8.716;2022-08-11T14:25:56;2.10;;;1.30;;
22543;SDS011;11438;52.044;8.716;2022-08-11T14:28:40;1.60;;;1.30;;
22543;SDS011;11438;52.044;8.716;2022-08-11T14:31:06;2.10;;;1.42;;
22543;SDS011;11438;52.044;8.716;2022-08-11T14:33:33;2.30;;;1.38;;
22543;SDS011;11438;52.044;8.716;2022-08-11T14:36:00;4.22;;;1.33;;
22543;SDS011;11438;52.044;8.716;2022-08-11T14:38:31;4.43;;;1.20;;
22543;SDS011;11438;52.044;8.716;2022-08-11T14:40:58;1.25;;;1.10;;
22543;SDS011;11438;52.044;8.716;2022-08-11T14:43:42;1.67;;;1.30;;
22543;SDS011;11438;52.044;8.716;2022-08-11T14:46:27;3.83;;;1.10;;
22543;SDS011;11438;52.044;8.716;2022-08-11T14:49:12;2.92;;;1.30;;
22543;SDS011;11438;52.044;8.716;2022-08-11T14:51:38;2.03;;;1.40;;
22543;SDS011;11438;52.044;8.716;2022-08-11T14:54:05;3.03;;;1.20;;
22543;SDS011;11438;52.044;8.716;2022-08-11T14:56:51;2.13;;;1.25;;
22543;SDS011;11438;52.044;8.716;2022-08-11T14:59:17;2.38;;;1.30;;
22543;SDS011;11438;52.044;8.716;2022-08-11T15:01:43;3.60;;;1.30;;
22543;SDS011;11438;52.044;8.716;2022-08-11T15:04:27;1.70;;;1.30;;
22543;SDS011;11438;52.044;8.716;2022-08-11T15:06:53;2.75;;;1.30;;
22543;SDS011;11438;52.044;8.716;2022-08-11T15:09:19;1.23;;;1.10;;
22543;SDS011;11438;52.044;8.716;2022-08-11T15:11:45;1.55;;;1.30;;
22543;SDS011;11438;52.044;8.716;2022-08-11T15:14:29;2.60;;;1.67;;
22543;SDS011;11438;52.044;8.716;2022-08-11T15:17:13;1.58;;;1.48;;
22543;SDS011;11438;52.044;8.716;2022-08-11T15:19:40;1.83;;;1.30;;
22543;SDS011;11438;52.044;8.716;2022-08-11T15:22:26;4.05;;;1.30;;
22543;SDS011;11438;52.044;8.716;2022-08-11T15:25:11;2.30;;;1.27;;
22543;SDS011;11438;52.044;8.716;2022-08-11T15:27:37;1.70;;;1.42;;
22543;SDS011;11438;52.044;8.716;2022-08-11T15:30:23;2.08;;;1.40;;
22543;SDS011;11438;52.044;8.716;2022-08-11T15:33:08;3.35;;;1.40;;
22543;SDS011;11438;52.044;8.716;2022-08-11T15:35:56;2.15;;;1.50;;
22543;SDS011;11438;52.044;8.716;2022-08-11T15:38:48;1.75;;;1.42;;
22543;SDS011;11438;52.044;8.716;2022-08-11T15:41:19;3.67;;;1.35;;
22543;SDS011;11438;52.044;8.716;2022-08-11T15:44:08;2.47;;;1.38;;
22543;SDS011;11438;52.044;8.716;2022-08-11T15:46:55;2.55;;;1.70;;
22543;SDS011;11438;52.044;8.716;2022-08-11T15:49:29;2.50;;;1.55;;
22543;SDS011;11438;52.044;8.716;2022-08-11T15:54:32;2.63;;;1.80;;
22543;SDS011;11438;52.044;8.716;2022-08-11T15:57:02;2.15;;;1.40;;
22543;SDS011;11438;52.044;8.716;2022-08-11T15:59:30;2.92;;;1.63;;
22543;SDS011;11438;52.044;8.716;2022-08-11T16:02:16;3.00;;;1.40;;
22543;SDS011;11438;52.044;8.716;2022-08-11T16:05:09;3.78;;;1.60;;
22543;SDS011;11438;52.044;8.716;2022-08-11T16:07:37;2.72;;;1.60;;
22543;SDS011;11438;52.044;8.716;2022-08-11T16:10:05;3.38;;;1.67;;
22543;SDS011;11438;52.044;8.716;2022-08-11T16:12:51;2.10;;;1.40;;
22543;SDS011;11438;52.044;8.716;2022-08-11T16:15:30;3.13;;;1.30;;
22543;SDS011;11438;52.044;8.716;2022-08-11T16:18:21;2.92;;;1.52;;
22543;SDS011;11438;52.044;8.716;2022-08-11T16:21:04;1.63;;;1.33;;
22543;SDS011;11438;52.044;8.716;2022-08-11T16:23:42;2.83;;;1.45;;
22543;SDS011;11438;52.044;8.716;2022-08-11T16:26:10;1.73;;;1.30;;
22543;SDS011;11438;52.044;8.716;2022-08-11T16:28:37;1.27;;;1.13;;
22543;SDS011;11438;52.044;8.716;2022-08-11T16:31:04;4.15;;;1.75;;
22543;SDS011;11438;52.044;8.716;2022-08-11T16:33:34;1.90;;;1.30;;
22543;SDS011;11438;52.044;8.716;2022-08-11T16:36:02;2.00;;;1.35;;
22543;SDS011;11438;52.044;8.716;2022-08-11T16:38:46;2.38;;;1.48;;
22543;SDS011;11438;52.044;8.716;2022-08-11T16:41:15;2.10;;;1.70;;
22543;SDS011;11438;52.044;8.716;2022-08-11T16:44:04;3.08;;;1.60;;
22543;SDS011;11438;52.044;8.716;2022-08-11T16:46:49;2.63;;;1.50;;
22543;SDS011;11438;52.044;8.716;2022-08-11T16:49:32;2.75;;;1.70;;
22543;SDS011;11438;52.044;8.716;2022-08-11T16:52:00;1.98;;;1.30;;
22543;SDS011;11438;52.044;8.716;2022-08-11T16:54:32;2.42;;;1.60;;
22543;SDS011;11438;52.044;8.716;2022-08-11T16:56:59;3.10;;;1.50;;
22543;SDS011;11438;52.044;8.716;2022-08-11T16:59:48;2.20;;;1.40;;
22543;SDS011;11438;52.044;8.716;2022-08-11T17:02:15;1.92;;;1.33;;
22543;SDS011;11438;52.044;8.716;2022-08-11T17:05:06;2.47;;;1.40;;
22543;SDS011;11438;52.044;8.716;2022-08-11T17:07:58;3.55;;;1.52;;
22543;SDS011;11438;52.044;8.716;2022-08-11T17:10:58;1.95;;;1.27;;
22543;SDS011;11438;52.044;8.716;2022-08-11T17:13:46;2.20;;;1.40;;
22543;SDS011;11438;52.044;8.716;2022-08-11T17:16:19;2.97;;;1.60;;
22543;SDS011;11438;52.044;8.716;2022-08-11T17:19:00;3.13;;;1.58;;
22543;SDS011;11438;52.044;8.716;2022-08-11T17:21:33;1.70;;;1.35;;
22543;SDS011;11438;52.044;8.716;2022-08-11T17:24:25;4.28;;;1.55;;
22543;SDS011;11438;52.044;8.716;2022-08-11T17:26:53;2.40;;;1.45;;
22543;SDS011;11438;52.044;8.716;2022-08-11T17:32:07;3.00;;;1.50;;
22543;SDS011;11438;52.044;8.716;2022-08-11T17:34:57;2.15;;;1.40;;
22543;SDS011;11438;52.044;8.716;2022-08-11T17:37:44;6.75;;;1.60;;
22543;SDS011;11438;52.044;8.716;2022-08-11T17:40:12;2.05;;;1.30;;
22543;SDS011;11438;52.044;8.716;2022-08-11T17:42:42;3.50;;;1.50;;
22543;SDS011;11438;52.044;8.716;2022-08-11T17:45:29;2.88;;;1.60;;
22543;SDS011;11438;52.044;8.716;2022-08-11T17:48:14;1.88;;;1.50;;
22543;SDS011;11438;52.044;8.716;2022-08-11T17:50:53;1.95;;;1.50;;
22543;SDS011;11438;52.044;8.716;2022-08-11T17:53:23;2.00;;;1.45;;
22543;SDS011;11438;52.044;8.716;2022-08-11T17:56:12;1.88;;;1.20;;
22543;SDS011;11438;52.044;8.716;2022-08-11T17:58:58;3.13;;;1.20;;
22543;SDS011;11438;52.044;8.716;2022-08-11T18:01:43;1.95;;;1.10;;
22543;SDS011;11438;52.044;8.716;2022-08-11T18:04:11;2.03;;;1.40;;
22543;SDS011;11438;52.044;8.716;2022-08-11T18:06:38;3.30;;;1.70;;
22543;SDS011;11438;52.044;8.716;2022-08-11T18:09:07;2.15;;;1.27;;
22543;SDS011;11438;52.044;8.716;2022-08-11T18:11:57;2.60;;;1.35;;
22543;SDS011;11438;52.044;8.716;2022-08-11T18:14:45;1.65;;;1.20;;
22543;SDS011;11438;52.044;8.716;2022-08-11T18:17:31;2.75;;;1.77;;
22543;SDS011;11438;52.044;8.716;2022-08-11T18:20:17;2.42;;;1.40;;
22543;SDS011;11438;52.044;8.716;2022-08-11T18:23:03;1.98;;;1.45;;
22543;SDS011;11438;52.044;8.716;2022-08-11T18:25:54;1.77;;;1.30;;
22543;SDS011;11438;52.044;8.716;2022-08-11T18:28:45;2.55;;;1.40;;
22543;SDS011;11438;52.044;8.716;2022-08-11T18:31:32;2.13;;;1.30;;
22543;SDS011;11438;52.044;8.716;2022-08-11T18:34:19;2.15;;;1.30;;
22543;SDS011;11438;52.044;8.716;2022-08-11T18:37:09;3.53;;;1.55;;
22543;SDS011;11438;52.044;8.716;2022-08-11T18:40:03;3.08;;;1.50;;
22543;SDS011;11438;52.044;8.716;2022-08-11T18:42:50;1.48;;;1.20;;